createdAt,value
2018-07-23T00:00:45.584Z,22.07
2018-07-23T00:03:13.640Z,21.93
2018-07-23T00:05:41.697Z,22.30
2018-07-23T00:08:09.736Z,22.95
2018-07-23T00:10:37.781Z,22.40
2018-07-23T00:13:05.828Z,22.50
2018-07-23T00:15:33.872Z,18.45
2018-07-23T00:18:01.920Z,21.10
2018-07-23T00:20:29.988Z,19.55
2018-07-23T00:22:58.051Z,18.42
2018-07-23T00:25:26.200Z,17.15
2018-07-23T00:27:54.268Z,19.25
2018-07-23T00:30:22.328Z,20.80
2018-07-23T00:32:50.396Z,18.87
2018-07-23T00:35:18.461Z,18.23
2018-07-23T00:37:46.528Z,18.17
2018-07-23T00:40:14.736Z,18.48
2018-07-23T00:42:42.861Z,18.10
2018-07-23T00:45:10.933Z,13.35
2018-07-23T00:47:39.207Z,16.82
2018-07-23T00:50:07.274Z,15.23
2018-07-23T00:52:35.895Z,15.75
2018-07-23T00:55:04.069Z,16.05
2018-07-23T00:57:32.261Z,17.30
2018-07-23T01:00:00.753Z,17.48
2018-07-23T01:02:28.843Z,20.20
2018-07-23T01:04:57.116Z,21.90
2018-07-23T01:07:25.364Z,21.73
2018-07-23T01:09:53.900Z,21.30
2018-07-23T01:12:29.780Z,21.30
2018-07-23T01:14:57.848Z,23.90
2018-07-23T01:17:25.900Z,22.62
2018-07-23T01:19:55.359Z,21.90
2018-07-23T01:22:24.460Z,18.05
2018-07-23T01:24:52.688Z,18.17
2018-07-23T01:27:20.847Z,19.15
2018-07-23T01:29:49.131Z,17.73
2018-07-23T01:32:17.524Z,19.57
2018-07-23T01:34:45.588Z,18.27
2018-07-23T01:37:13.665Z,18.37
2018-07-23T01:39:41.737Z,16.93
2018-07-23T01:42:09.943Z,16.93
2018-07-23T01:44:38.177Z,16.42
2018-07-23T01:47:07.056Z,16.42
2018-07-23T01:49:35.243Z,16.23
2018-07-23T01:52:03.637Z,15.72
2018-07-23T01:54:31.712Z,15.60
2018-07-23T01:57:00.070Z,18.50
2018-07-23T01:59:28.172Z,16.57
2018-07-23T02:01:56.376Z,16.75
2018-07-23T02:04:24.440Z,19.10
2018-07-23T02:06:52.504Z,17.60
2018-07-23T02:09:20.577Z,18.98
2018-07-23T02:11:48.632Z,18.05
2018-07-23T02:14:16.699Z,16.07
2018-07-23T02:16:44.765Z,16.10
2018-07-23T02:19:12.836Z,16.37
2018-07-23T02:21:40.892Z,16.62
2018-07-23T02:24:08.939Z,16.95
2018-07-23T02:26:36.984Z,17.15
2018-07-23T02:29:05.041Z,17.75
2018-07-23T02:31:33.081Z,14.80
2018-07-23T02:34:01.131Z,15.13
2018-07-23T02:36:29.184Z,16.10
2018-07-23T02:38:57.225Z,17.07
2018-07-23T02:41:25.268Z,15.88
2018-07-23T02:43:53.325Z,16.90
2018-07-23T02:46:21.377Z,19.60
2018-07-23T02:48:49.424Z,20.55
2018-07-23T02:51:17.464Z,19.60
2018-07-23T02:53:45.517Z,19.05
2018-07-23T02:56:13.560Z,19.95
2018-07-23T02:58:41.611Z,18.95
2018-07-23T03:01:09.664Z,17.40
2018-07-23T03:03:37.709Z,15.28
2018-07-23T03:06:05.749Z,12.47
2018-07-23T03:08:33.799Z,13.78
2018-07-23T03:11:01.860Z,14.05
2018-07-23T03:13:29.936Z,13.38
2018-07-23T03:15:57.999Z,12.80
2018-07-23T03:18:26.064Z,12.63
2018-07-23T03:20:54.154Z,12.98
2018-07-23T03:23:22.211Z,12.25
2018-07-23T03:25:50.284Z,13.03
2018-07-23T03:28:18.364Z,14.03
2018-07-23T03:30:46.433Z,14.03
2018-07-23T03:33:14.492Z,13.28
2018-07-23T03:35:42.561Z,13.95
2018-07-23T03:38:10.613Z,13.25
2018-07-23T03:40:38.675Z,13.85
2018-07-23T03:43:06.735Z,14.60
2018-07-23T03:45:34.809Z,12.95
2018-07-23T03:48:02.873Z,13.85
2018-07-23T03:50:30.936Z,14.95
2018-07-23T03:52:58.995Z,13.95
2018-07-23T03:55:27.072Z,14.43
2018-07-23T03:57:55.128Z,14.28
2018-07-23T04:00:23.202Z,15.08
2018-07-23T04:02:51.267Z,13.90
2018-07-23T04:05:19.332Z,15.80
2018-07-23T04:07:47.390Z,15.72
2018-07-23T04:10:15.464Z,15.85
2018-07-23T04:12:43.528Z,16.65
2018-07-23T04:15:11.628Z,16.25
2018-07-23T04:17:39.708Z,19.50
2018-07-23T04:20:07.788Z,19.75
2018-07-23T04:22:35.924Z,19.07
2018-07-23T04:25:03.972Z,18.82
2018-07-23T04:27:32.013Z,19.15
2018-07-23T04:30:00.067Z,18.27
2018-07-23T04:32:28.105Z,20.08
2018-07-23T04:34:56.157Z,21.52
2018-07-23T04:37:24.216Z,21.33
2018-07-23T04:39:52.268Z,18.90
2018-07-23T04:42:20.333Z,17.05
2018-07-23T04:44:48.383Z,22.00
2018-07-23T04:47:16.423Z,19.62
2018-07-23T04:49:44.481Z,21.33
2018-07-23T04:52:12.524Z,23.77
2018-07-23T04:54:40.569Z,28.00
2018-07-23T04:57:08.612Z,28.12
2018-07-23T04:59:36.656Z,21.80
2018-07-23T05:02:04.692Z,22.02
2018-07-23T05:04:32.535Z,20.15
2018-07-23T05:07:00.584Z,22.37
2018-07-23T05:09:28.628Z,20.68
2018-07-23T05:11:56.676Z,18.98
2018-07-23T05:14:24.729Z,18.98
2018-07-23T05:16:52.767Z,19.67
2018-07-23T05:19:20.817Z,19.98
2018-07-23T05:21:48.873Z,21.50
2018-07-23T05:24:16.919Z,21.05
2018-07-23T05:26:44.959Z,21.62
2018-07-23T05:29:13.004Z,23.75
2018-07-23T05:31:41.086Z,26.60
2018-07-23T05:34:09.100Z,24.25
2018-07-23T05:36:37.156Z,27.35
2018-07-23T05:39:07.775Z,28.77
2018-07-23T05:41:35.824Z,26.90
2018-07-23T05:44:03.860Z,27.70
2018-07-23T05:46:31.704Z,25.62
2018-07-23T05:48:59.757Z,26.65
2018-07-23T05:51:27.800Z,26.20
2018-07-23T05:53:55.841Z,25.75
2018-07-23T05:56:23.927Z,24.57
2018-07-23T05:58:51.979Z,25.40
2018-07-23T06:01:20.301Z,24.12
2018-07-23T06:03:48.352Z,23.32
2018-07-23T06:06:16.445Z,24.90
2018-07-23T06:08:44.460Z,23.75
2018-07-23T06:11:12.503Z,24.80
2018-07-23T06:13:40.548Z,24.10
2018-07-23T06:16:08.812Z,26.30
2018-07-23T06:18:36.852Z,24.07
2018-07-23T06:21:05.086Z,25.65
2018-07-23T06:23:33.364Z,25.30
2018-07-23T06:26:01.468Z,25.88
2018-07-23T06:28:29.524Z,23.77
2018-07-23T06:30:57.601Z,22.90
2018-07-23T06:33:25.668Z,21.87
2018-07-23T06:35:53.773Z,20.57
2018-07-23T06:38:21.829Z,22.48
2018-07-23T06:40:49.895Z,19.12
2018-07-23T06:43:17.982Z,18.62
2018-07-23T06:45:46.036Z,17.00
2018-07-23T06:48:14.104Z,19.20
2018-07-23T06:50:42.173Z,17.00
2018-07-23T06:53:10.280Z,17.35
2018-07-23T06:55:38.348Z,16.87
2018-07-23T06:58:06.424Z,16.23
2018-07-23T07:00:34.544Z,17.02
2018-07-23T07:03:02.549Z,18.32
2018-07-23T07:05:30.617Z,17.95
2018-07-23T07:07:58.674Z,17.77
2018-07-23T07:10:26.745Z,17.87
2018-07-23T07:12:54.805Z,19.75
2018-07-23T07:15:22.880Z,20.25
2018-07-23T07:17:50.932Z,20.37
2018-07-23T07:20:18.989Z,19.45
2018-07-23T07:22:47.032Z,20.48
2018-07-23T07:25:15.078Z,18.92
2018-07-23T07:27:43.112Z,21.75
2018-07-23T07:30:11.155Z,20.50
2018-07-23T07:32:39.203Z,20.15
2018-07-23T07:35:07.240Z,21.73
2018-07-23T07:37:35.293Z,21.87
2018-07-23T07:40:03.339Z,21.10
2018-07-23T07:42:31.397Z,21.57
2018-07-23T07:44:59.441Z,22.07
2018-07-23T07:47:27.492Z,21.40
2018-07-23T07:49:55.536Z,21.70
2018-07-23T07:52:23.601Z,21.57
2018-07-23T07:54:51.625Z,22.55
2018-07-23T07:57:19.677Z,22.48
2018-07-23T07:59:47.793Z,20.45
2018-07-23T08:02:15.836Z,20.88
2018-07-23T08:04:43.872Z,21.17
2018-07-23T08:07:11.985Z,21.40
2018-07-23T08:09:39.966Z,20.48
2018-07-23T08:12:08.025Z,21.05
2018-07-23T08:14:36.067Z,20.85
2018-07-23T08:17:04.112Z,19.45
2018-07-23T08:19:32.168Z,17.98
2018-07-23T08:22:00.216Z,16.67
2018-07-23T08:24:28.257Z,17.17
2018-07-23T08:26:56.308Z,17.00
2018-07-23T08:29:24.352Z,18.85
2018-07-23T08:31:52.461Z,16.87
2018-07-23T08:34:20.448Z,16.67
2018-07-23T08:36:48.504Z,17.65
2018-07-23T08:39:16.552Z,14.90
2018-07-23T08:41:44.628Z,14.87
2018-07-23T08:44:12.692Z,14.75
2018-07-23T08:46:40.748Z,16.32
2018-07-23T08:49:08.792Z,15.63
2018-07-23T08:51:36.859Z,17.50
2018-07-23T08:54:04.905Z,15.65
2018-07-23T08:56:32.952Z,16.97
2018-07-23T08:59:00.993Z,15.03
2018-07-23T09:01:29.039Z,14.73
2018-07-23T09:03:57.130Z,13.08
2018-07-23T09:06:25.176Z,13.70
2018-07-23T09:08:53.229Z,12.95
2018-07-23T09:11:21.291Z,14.05
2018-07-23T09:13:49.335Z,12.98
2018-07-23T09:16:17.752Z,12.60
2018-07-23T09:18:45.800Z,11.97
2018-07-23T09:21:13.862Z,11.68
2018-07-23T09:23:41.937Z,11.63
2018-07-23T09:26:09.960Z,12.80
2018-07-23T09:28:38.020Z,12.35
2018-07-23T09:31:06.568Z,10.90
2018-07-23T09:33:34.592Z,12.40
2018-07-23T09:36:02.647Z,12.68
2018-07-23T09:38:30.687Z,12.00
2018-07-23T09:40:58.740Z,11.03
2018-07-23T09:43:26.796Z,10.90
2018-07-23T09:45:54.847Z,13.08
2018-07-23T09:48:22.904Z,10.50
2018-07-23T09:50:50.948Z,10.13
2018-07-23T09:53:19.004Z,12.93
2018-07-23T09:55:47.048Z,11.45
2018-07-23T09:58:15.117Z,11.95
2018-07-23T10:00:48.626Z,11.28
2018-07-23T10:03:16.836Z,12.45
2018-07-23T10:05:44.732Z,11.75
2018-07-23T10:08:12.582Z,11.70
2018-07-23T10:10:40.641Z,11.55
2018-07-23T10:13:08.688Z,10.68
2018-07-23T10:15:36.748Z,11.13
2018-07-23T10:18:04.796Z,13.00
2018-07-23T10:20:32.869Z,11.10
2018-07-23T10:23:00.944Z,9.48
2018-07-23T10:25:29.016Z,10.53
2018-07-23T10:27:57.097Z,10.23
2018-07-23T10:30:25.164Z,10.63
2018-07-23T10:32:53.232Z,9.93
2018-07-23T10:35:21.652Z,10.80
2018-07-23T10:37:49.728Z,11.33
2018-07-23T10:40:17.588Z,10.55
2018-07-23T10:42:45.857Z,8.60
2018-07-23T10:45:13.928Z,9.33
2018-07-23T10:47:42.007Z,10.78
2018-07-23T10:50:10.066Z,11.60
2018-07-23T10:52:37.927Z,10.38
2018-07-23T10:55:05.996Z,9.58
2018-07-23T10:57:34.064Z,10.35
2018-07-23T11:00:02.144Z,11.20
2018-07-23T11:02:30.222Z,10.30
2018-07-23T11:04:58.392Z,8.05
2018-07-23T11:07:26.525Z,10.75
2018-07-23T11:09:54.529Z,11.08
2018-07-23T11:12:22.604Z,11.85
2018-07-23T11:14:50.664Z,7.97
2018-07-23T11:17:18.821Z,8.70
2018-07-23T11:19:47.018Z,9.45
2018-07-23T11:22:15.110Z,8.40
2018-07-23T11:24:45.620Z,10.28
2018-07-23T11:27:11.266Z,10.90
2018-07-23T11:29:39.617Z,9.78
2018-07-23T11:32:07.686Z,10.00
2018-07-23T11:34:35.701Z,10.08
2018-07-23T11:37:03.756Z,9.75
2018-07-23T11:39:31.827Z,8.48
2018-07-23T11:41:59.884Z,9.25
2018-07-23T11:44:27.956Z,10.08
2018-07-23T11:46:56.017Z,8.33
2018-07-23T11:49:24.080Z,7.75
2018-07-23T11:51:52.150Z,10.13
2018-07-23T11:54:20.220Z,9.00
2018-07-23T11:56:48.290Z,7.80
2018-07-23T11:59:16.368Z,6.75
2018-07-23T12:01:44.532Z,7.45
2018-07-23T12:04:12.549Z,7.97
2018-07-23T12:06:40.592Z,6.92
2018-07-23T12:09:10.049Z,7.30
2018-07-23T12:11:38.128Z,7.53
2018-07-23T12:14:06.728Z,7.60
2018-07-23T12:16:34.920Z,7.90
2018-07-23T12:19:02.975Z,7.67
2018-07-23T12:21:31.039Z,7.17
2018-07-23T12:23:59.100Z,6.50
2018-07-23T12:26:27.139Z,7.80
2018-07-23T12:28:55.218Z,8.30
2018-07-23T12:31:23.235Z,8.90
2018-07-23T12:33:51.280Z,8.60
2018-07-23T12:36:19.329Z,7.73
2018-07-23T12:38:47.372Z,7.83
2018-07-23T12:41:15.412Z,7.50
2018-07-23T12:43:43.464Z,7.20
2018-07-23T12:46:11.505Z,7.07
2018-07-23T12:48:39.552Z,6.47
2018-07-23T12:51:08.045Z,7.23
2018-07-23T12:53:36.084Z,7.10
2018-07-23T12:56:04.128Z,7.63
2018-07-23T12:58:32.177Z,7.00
2018-07-23T13:01:00.228Z,7.13
2018-07-23T13:03:28.270Z,6.93
2018-07-23T13:05:56.305Z,7.03
2018-07-23T13:08:24.348Z,6.67
2018-07-23T13:10:52.408Z,6.50
2018-07-23T13:13:20.455Z,5.80
2018-07-23T13:15:48.487Z,7.07
2018-07-23T13:18:16.528Z,6.73
2018-07-23T13:20:44.573Z,6.53
2018-07-23T13:23:12.636Z,6.80
2018-07-23T13:25:40.769Z,6.87
2018-07-23T13:28:08.760Z,7.53
2018-07-23T13:30:36.804Z,6.90
2018-07-23T13:33:04.876Z,6.97
2018-07-23T13:35:32.913Z,6.60
2018-07-23T13:38:01.050Z,7.10
2018-07-23T13:40:29.065Z,6.77
2018-07-23T13:42:57.232Z,6.70
2018-07-23T13:45:25.531Z,6.77
2018-07-23T13:47:53.560Z,6.37
2018-07-23T13:50:21.611Z,6.10
2018-07-23T13:52:49.648Z,6.13
2018-07-23T13:55:17.692Z,6.90
2018-07-23T13:57:45.739Z,6.90
2018-07-23T14:00:13.786Z,7.07
2018-07-23T14:02:41.859Z,6.80
2018-07-23T14:05:09.896Z,5.93
2018-07-23T14:07:37.932Z,6.83
2018-07-23T14:10:05.983Z,6.77
2018-07-23T14:12:34.020Z,7.00
2018-07-23T14:15:02.118Z,6.30
2018-07-23T14:17:30.107Z,6.27
2018-07-23T14:19:58.158Z,7.20
2018-07-23T14:22:26.209Z,7.03
2018-07-23T14:24:54.263Z,6.20
2018-07-23T14:27:22.292Z,5.90
2018-07-23T14:29:50.335Z,6.33
2018-07-23T14:32:18.372Z,5.93
2018-07-23T14:34:46.416Z,6.03
2018-07-23T14:37:14.447Z,6.03
2018-07-23T14:39:42.535Z,5.53
2018-07-23T14:42:10.534Z,6.90
2018-07-23T14:44:38.572Z,7.20
2018-07-23T14:47:06.612Z,6.83
2018-07-23T14:49:34.662Z,6.77
2018-07-23T14:52:02.713Z,7.62
2018-07-23T14:54:30.756Z,6.55
2018-07-23T14:56:58.800Z,6.37
2018-07-23T14:59:26.851Z,6.73
2018-07-23T15:01:54.893Z,6.63
2018-07-23T15:04:22.956Z,6.17
2018-07-23T15:06:50.992Z,5.73
2018-07-23T15:09:19.036Z,6.23
2018-07-23T15:11:47.076Z,7.10
2018-07-23T15:14:15.133Z,6.80
2018-07-23T15:16:43.167Z,6.50
2018-07-23T15:19:11.224Z,6.60
2018-07-23T15:21:39.289Z,7.15
2018-07-23T15:24:07.357Z,5.30
2018-07-23T15:26:35.496Z,5.50
2018-07-23T15:29:03.572Z,5.33
2018-07-23T15:31:31.640Z,5.10
2018-07-23T15:33:59.815Z,4.93
2018-07-23T15:36:27.876Z,5.43
2018-07-23T15:38:55.945Z,5.13
2018-07-23T15:41:23.992Z,5.73
2018-07-23T15:43:52.160Z,5.50
2018-07-23T15:46:20.207Z,4.60
2018-07-23T15:48:48.163Z,4.83
2018-07-23T15:51:16.230Z,5.00
2018-07-23T15:53:44.280Z,5.20
2018-07-23T15:56:12.356Z,5.30
2018-07-23T15:58:40.407Z,5.03
2018-07-23T16:01:08.468Z,5.17
2018-07-23T16:03:36.532Z,5.70
2018-07-23T16:06:05.016Z,6.55
2018-07-23T16:08:32.935Z,5.67
2018-07-23T16:11:01.209Z,6.00
2018-07-23T16:13:29.278Z,5.00
2018-07-23T16:15:57.368Z,6.15
2018-07-23T16:18:25.539Z,5.28
2018-07-23T16:20:53.604Z,5.70
2018-07-23T16:23:21.656Z,5.40
2018-07-23T16:25:49.719Z,6.00
2018-07-23T16:28:17.784Z,5.25
2018-07-23T16:30:45.864Z,6.15
2018-07-23T16:33:13.923Z,6.00
2018-07-23T16:35:41.997Z,5.30
2018-07-23T16:38:10.077Z,5.25
2018-07-23T16:40:38.129Z,5.87
2018-07-23T16:43:06.184Z,5.10
2018-07-23T16:45:34.284Z,6.03
2018-07-23T16:48:02.352Z,5.50
2018-07-23T16:50:30.442Z,5.28
2018-07-23T16:52:58.499Z,5.45
2018-07-23T16:55:26.568Z,5.33
2018-07-23T16:57:54.629Z,5.07
2018-07-23T17:00:22.689Z,5.43
2018-07-23T17:02:50.748Z,4.80
2018-07-23T17:05:18.872Z,5.60
2018-07-23T17:07:46.907Z,5.67
2018-07-23T17:10:14.981Z,5.60
2018-07-23T17:12:43.040Z,5.62
2018-07-23T17:15:11.112Z,5.23
2018-07-23T17:17:39.180Z,5.50
2018-07-23T17:20:07.401Z,4.77
2018-07-23T17:22:35.471Z,6.35
2018-07-23T17:25:03.523Z,5.20
2018-07-23T17:27:31.564Z,5.30
2018-07-23T17:29:59.616Z,4.95
2018-07-23T17:32:27.653Z,5.30
2018-07-23T17:34:55.744Z,5.10
2018-07-23T17:37:23.797Z,4.97
2018-07-23T17:39:51.849Z,5.90
2018-07-23T17:42:19.889Z,5.05
2018-07-23T17:44:47.989Z,5.47
2018-07-23T17:47:15.992Z,4.92
2018-07-23T17:49:44.020Z,5.28
2018-07-23T17:52:12.073Z,4.78
2018-07-23T17:54:40.107Z,4.75
2018-07-23T17:57:08.183Z,4.62
2018-07-23T17:59:36.216Z,5.30
2018-07-23T18:02:04.260Z,5.08
2018-07-23T18:04:32.396Z,4.60
2018-07-23T18:07:00.424Z,4.53
2018-07-23T18:09:28.465Z,4.40
2018-07-23T18:11:56.517Z,4.70
2018-07-23T18:14:24.553Z,4.22
2018-07-23T18:16:52.616Z,5.08
2018-07-23T18:19:20.676Z,4.17
2018-07-23T18:21:49.568Z,4.75
2018-07-23T18:24:17.636Z,4.67
2018-07-23T18:26:45.696Z,4.90
2018-07-23T18:29:13.756Z,5.00
2018-07-23T18:31:41.820Z,4.20
2018-07-23T18:34:09.884Z,4.15
2018-07-23T18:36:37.952Z,5.30
2018-07-23T18:39:08.504Z,4.53
2018-07-23T18:41:36.959Z,4.72
2018-07-23T18:44:05.085Z,4.90
2018-07-23T18:46:33.145Z,5.20
2018-07-23T18:49:53.327Z,5.25
2018-07-23T18:52:21.940Z,4.83
2018-07-23T18:54:51.345Z,4.60
2018-07-23T18:57:19.417Z,4.95
2018-07-23T18:59:47.510Z,4.60
2018-07-23T19:02:16.731Z,5.78
2018-07-23T19:04:44.912Z,5.87
2018-07-23T19:07:13.007Z,5.42
2018-07-23T19:09:41.184Z,5.33
2018-07-23T19:12:09.725Z,5.12
2018-07-23T19:14:37.780Z,5.55
2018-07-23T19:17:07.085Z,5.20
2018-07-23T19:19:35.140Z,5.30
2018-07-23T19:22:03.221Z,5.45
2018-07-23T19:24:31.292Z,5.80
2018-07-23T19:26:59.392Z,5.17
2018-07-23T19:29:27.444Z,5.67
2018-07-23T19:31:55.517Z,5.95
2018-07-23T19:34:23.592Z,5.50
2018-07-23T19:36:51.655Z,6.28
2018-07-23T19:39:20.669Z,5.20
2018-07-23T19:41:48.747Z,4.92
2018-07-23T19:44:16.783Z,5.17
2018-07-23T19:46:45.488Z,5.47
2018-07-23T19:49:13.580Z,5.47
2018-07-23T19:51:41.692Z,5.17
2018-07-23T19:54:10.396Z,5.25
2018-07-23T19:56:38.456Z,5.78
2018-07-23T19:59:06.540Z,5.80
2018-07-23T20:01:34.761Z,5.95
2018-07-23T20:04:02.833Z,5.47
2018-07-23T20:06:30.892Z,4.85
2018-07-23T20:08:59.938Z,6.22
2018-07-23T20:11:28.744Z,6.22
2018-07-23T20:13:56.816Z,6.08
2018-07-23T20:16:24.877Z,6.17
2018-07-23T20:18:52.927Z,5.75
2018-07-23T20:21:20.996Z,6.40
2018-07-23T20:23:49.057Z,6.65
2018-07-23T20:26:17.125Z,6.55
2018-07-23T20:28:45.240Z,7.00
2018-07-23T20:31:13.328Z,6.80
2018-07-23T20:33:41.388Z,6.55
2018-07-23T20:36:09.466Z,6.78
2018-07-23T20:38:37.520Z,7.55
2018-07-23T20:41:05.620Z,6.67
2018-07-23T20:43:34.048Z,7.33
2018-07-23T20:46:02.436Z,7.22
2018-07-23T20:48:30.516Z,7.30
2018-07-23T20:50:58.564Z,6.47
2018-07-23T20:53:26.624Z,7.72
2018-07-23T20:55:54.687Z,7.35
2018-07-23T20:58:23.172Z,6.90
2018-07-23T21:00:52.076Z,6.25
2018-07-23T21:03:20.168Z,7.17
2018-07-23T21:05:48.306Z,6.03
2018-07-23T21:08:16.380Z,6.80
2018-07-23T21:10:44.508Z,8.05
2018-07-23T21:13:12.570Z,7.55
2018-07-23T21:15:40.636Z,7.40
2018-07-23T21:18:08.980Z,7.75
2018-07-23T21:20:37.416Z,7.62
2018-07-23T21:23:05.916Z,8.18
2018-07-23T21:25:34.044Z,6.55
2018-07-23T21:28:02.108Z,7.20
2018-07-23T21:30:30.168Z,8.18
2018-07-23T21:32:58.233Z,7.03
2018-07-23T21:35:26.291Z,7.60
2018-07-23T21:37:54.449Z,8.30
2018-07-23T21:40:22.576Z,8.30
2018-07-23T21:42:50.648Z,8.95
2018-07-23T21:45:18.704Z,8.18
2018-07-23T21:47:46.777Z,7.97
2018-07-23T21:50:14.836Z,8.33
2018-07-23T21:52:42.905Z,8.93
2018-07-23T21:55:10.972Z,8.33
2018-07-23T21:57:39.076Z,8.33
2018-07-23T22:00:10.552Z,9.03
2018-07-23T22:02:38.801Z,7.47
2018-07-23T22:05:06.871Z,8.13
2018-07-23T22:07:34.972Z,7.83
2018-07-23T22:10:03.144Z,8.55
2018-07-23T22:12:31.203Z,8.40
2018-07-23T22:14:59.266Z,8.55
2018-07-23T22:17:27.319Z,8.30
2018-07-23T22:19:55.369Z,8.80
2018-07-23T22:22:23.420Z,8.90
2018-07-23T22:24:51.452Z,9.55
2018-07-23T22:27:19.539Z,9.05
2018-07-23T22:29:47.580Z,8.75
2018-07-23T22:32:15.635Z,9.20
2018-07-23T22:34:43.688Z,9.30
2018-07-23T22:37:11.729Z,8.83
2018-07-23T22:39:39.576Z,9.15
2018-07-23T22:42:07.688Z,9.70
2018-07-23T22:44:35.697Z,8.33
2018-07-23T22:47:03.741Z,9.93
2018-07-23T22:49:31.795Z,10.23
2018-07-23T22:51:59.844Z,10.80
2018-07-23T22:54:27.900Z,9.10
2018-07-23T22:56:55.952Z,9.40
2018-07-23T22:59:23.996Z,9.48
2018-07-23T23:01:52.036Z,10.48
2018-07-23T23:04:20.088Z,9.75
2018-07-23T23:06:48.136Z,8.58
2018-07-23T23:09:16.192Z,9.20
2018-07-23T23:11:44.223Z,9.70
2018-07-23T23:14:12.321Z,9.23
2018-07-23T23:16:40.360Z,10.28
2018-07-23T23:19:08.477Z,10.60
2018-07-23T23:21:36.528Z,10.13
2018-07-23T23:24:04.617Z,9.50
2018-07-23T23:26:32.655Z,10.93
2018-07-23T23:29:00.856Z,10.15
2018-07-23T23:31:29.133Z,10.10
2018-07-23T23:33:57.189Z,10.23
2018-07-23T23:36:25.229Z,10.40
2018-07-23T23:38:53.280Z,10.40
2018-07-23T23:41:21.333Z,9.80
2018-07-23T23:43:49.391Z,10.50
2018-07-23T23:46:17.448Z,11.88
2018-07-23T23:48:45.499Z,9.25
2018-07-23T23:51:13.551Z,11.12
2018-07-23T23:53:41.596Z,10.70
2018-07-23T23:56:09.633Z,11.75
2018-07-23T23:58:37.563Z,11.28
